sensor_id;sensor_type;location;lat;lon;timestamp;P1;durP1;ratioP1;P2;durP2;ratioP2
75465;SDS011;64049;46.290;44.240;2022-11-20T00:01:15;32.90;;;13.95;;
75465;SDS011;64049;46.290;44.240;2022-11-20T00:03:43;29.92;;;12.77;;
75465;SDS011;64049;46.290;44.240;2022-11-20T00:06:11;32.00;;;14.73;;
75465;SDS011;64049;46.290;44.240;2022-11-20T00:08:39;27.60;;;11.90;;
75465;SDS011;64049;46.290;44.240;2022-11-20T00:11:06;34.42;;;14.32;;
75465;SDS011;64049;46.290;44.240;2022-11-20T00:13:33;37.50;;;13.70;;
75465;SDS011;64049;46.290;44.240;2022-11-20T00:16:00;35.67;;;13.40;;
75465;SDS011;64049;46.290;44.240;2022-11-20T00:18:28;39.63;;;15.00;;
75465;SDS011;64049;46.290;44.240;2022-11-20T00:21:00;32.15;;;12.95;;
75465;SDS011;64049;46.290;44.240;2022-11-20T00:23:37;28.98;;;13.73;;
75465;SDS011;64049;46.290;44.240;2022-11-20T00:26:03;37.45;;;12.60;;
75465;SDS011;64049;46.290;44.240;2022-11-20T00:28:34;39.15;;;16.17;;
75465;SDS011;64049;46.290;44.240;2022-11-20T00:31:04;36.78;;;14.13;;
75465;SDS011;64049;46.290;44.240;2022-11-20T00:33:34;32.47;;;13.82;;
75465;SDS011;64049;46.290;44.240;2022-11-20T00:36:03;34.35;;;15.20;;
75465;SDS011;64049;46.290;44.240;2022-11-20T00:38:34;36.13;;;15.38;;
75465;SDS011;64049;46.290;44.240;2022-11-20T00:41:01;29.77;;;13.23;;
75465;SDS011;64049;46.290;44.240;2022-11-20T00:43:29;30.58;;;13.05;;
75465;SDS011;64049;46.290;44.240;2022-11-20T00:45:58;39.67;;;14.48;;
75465;SDS011;64049;46.290;44.240;2022-11-20T00:48:25;31.30;;;14.15;;
75465;SDS011;64049;46.290;44.240;2022-11-20T00:50:51;37.75;;;14.70;;
75465;SDS011;64049;46.290;44.240;2022-11-20T00:53:18;33.40;;;13.13;;
75465;SDS011;64049;46.290;44.240;2022-11-20T00:55:58;33.50;;;13.90;;
75465;SDS011;64049;46.290;44.240;2022-11-20T00:58:29;35.00;;;13.38;;
75465;SDS011;64049;46.290;44.240;2022-11-20T01:01:13;33.60;;;13.25;;
75465;SDS011;64049;46.290;44.240;2022-11-20T01:03:41;34.65;;;14.48;;
75465;SDS011;64049;46.290;44.240;2022-11-20T01:08:40;32.70;;;16.77;;
75465;SDS011;64049;46.290;44.240;2022-11-20T01:11:08;31.10;;;15.57;;
75465;SDS011;64049;46.290;44.240;2022-11-20T01:13:48;31.13;;;12.25;;
75465;SDS011;64049;46.290;44.240;2022-11-20T01:16:18;34.50;;;14.15;;
75465;SDS011;64049;46.290;44.240;2022-11-20T01:18:50;33.83;;;15.15;;
75465;SDS011;64049;46.290;44.240;2022-11-20T01:21:21;32.35;;;13.98;;
75465;SDS011;64049;46.290;44.240;2022-11-20T01:23:49;31.17;;;15.32;;
75465;SDS011;64049;46.290;44.240;2022-11-20T01:26:17;31.30;;;13.40;;
75465;SDS011;64049;46.290;44.240;2022-11-20T01:28:48;37.03;;;14.73;;
75465;SDS011;64049;46.290;44.240;2022-11-20T01:31:16;32.58;;;14.45;;
75465;SDS011;64049;46.290;44.240;2022-11-20T01:33:44;31.02;;;13.10;;
75465;SDS011;64049;46.290;44.240;2022-11-20T01:36:11;33.35;;;12.77;;
75465;SDS011;64049;46.290;44.240;2022-11-20T01:38:38;31.08;;;14.15;;
75465;SDS011;64049;46.290;44.240;2022-11-20T01:41:05;29.52;;;13.57;;
75465;SDS011;64049;46.290;44.240;2022-11-20T01:43:31;36.20;;;14.15;;
75465;SDS011;64049;46.290;44.240;2022-11-20T01:48:41;29.67;;;13.77;;
75465;SDS011;64049;46.290;44.240;2022-11-20T01:51:26;35.08;;;13.98;;
75465;SDS011;64049;46.290;44.240;2022-11-20T01:53:57;32.70;;;12.25;;
75465;SDS011;64049;46.290;44.240;2022-11-20T01:56:26;33.08;;;14.95;;
75465;SDS011;64049;46.290;44.240;2022-11-20T01:58:54;30.20;;;14.80;;
75465;SDS011;64049;46.290;44.240;2022-11-20T02:01:23;33.35;;;13.63;;
75465;SDS011;64049;46.290;44.240;2022-11-20T02:03:49;30.67;;;12.10;;
75465;SDS011;64049;46.290;44.240;2022-11-20T02:06:20;25.35;;;10.63;;
75465;SDS011;64049;46.290;44.240;2022-11-20T02:08:50;30.73;;;12.55;;
75465;SDS011;64049;46.290;44.240;2022-11-20T02:11:17;31.67;;;14.55;;
75465;SDS011;64049;46.290;44.240;2022-11-20T02:13:44;27.17;;;11.88;;
75465;SDS011;64049;46.290;44.240;2022-11-20T02:16:15;30.65;;;13.73;;
75465;SDS011;64049;46.290;44.240;2022-11-20T02:18:53;33.55;;;13.40;;
75465;SDS011;64049;46.290;44.240;2022-11-20T02:24:06;30.08;;;14.05;;
75465;SDS011;64049;46.290;44.240;2022-11-20T02:26:46;32.03;;;12.70;;
75465;SDS011;64049;46.290;44.240;2022-11-20T02:29:16;32.22;;;14.40;;
75465;SDS011;64049;46.290;44.240;2022-11-20T02:31:48;32.92;;;13.68;;
75465;SDS011;64049;46.290;44.240;2022-11-20T02:34:14;33.97;;;13.48;;
75465;SDS011;64049;46.290;44.240;2022-11-20T02:36:40;42.65;;;15.52;;
75465;SDS011;64049;46.290;44.240;2022-11-20T02:39:08;40.00;;;13.65;;
75465;SDS011;64049;46.290;44.240;2022-11-20T02:41:37;37.78;;;14.77;;
75465;SDS011;64049;46.290;44.240;2022-11-20T02:44:03;43.55;;;18.42;;
75465;SDS011;64049;46.290;44.240;2022-11-20T02:46:31;36.92;;;17.35;;
75465;SDS011;64049;46.290;44.240;2022-11-20T02:48:57;38.22;;;17.02;;
75465;SDS011;64049;46.290;44.240;2022-11-20T02:51:23;42.80;;;16.13;;
75465;SDS011;64049;46.290;44.240;2022-11-20T02:53:49;38.75;;;16.25;;
75465;SDS011;64049;46.290;44.240;2022-11-20T02:56:15;38.20;;;16.88;;
75465;SDS011;64049;46.290;44.240;2022-11-20T02:58:41;47.28;;;18.05;;
75465;SDS011;64049;46.290;44.240;2022-11-20T03:01:07;46.88;;;19.38;;
75465;SDS011;64049;46.290;44.240;2022-11-20T03:03:33;49.80;;;18.52;;
75465;SDS011;64049;46.290;44.240;2022-11-20T03:05:59;53.33;;;19.13;;
75465;SDS011;64049;46.290;44.240;2022-11-20T03:08:25;54.40;;;18.25;;
75465;SDS011;64049;46.290;44.240;2022-11-20T03:10:51;47.03;;;17.65;;
75465;SDS011;64049;46.290;44.240;2022-11-20T03:13:17;26.88;;;10.98;;
75465;SDS011;64049;46.290;44.240;2022-11-20T03:15:43;43.22;;;17.67;;
75465;SDS011;64049;46.290;44.240;2022-11-20T03:18:09;37.75;;;15.77;;
75465;SDS011;64049;46.290;44.240;2022-11-20T03:20:35;45.50;;;14.75;;
75465;SDS011;64049;46.290;44.240;2022-11-20T03:23:01;46.55;;;16.10;;
75465;SDS011;64049;46.290;44.240;2022-11-20T03:25:27;52.08;;;14.93;;
75465;SDS011;64049;46.290;44.240;2022-11-20T03:27:53;58.67;;;17.05;;
75465;SDS011;64049;46.290;44.240;2022-11-20T03:30:19;54.40;;;14.70;;
75465;SDS011;64049;46.290;44.240;2022-11-20T03:32:46;62.08;;;19.42;;
75465;SDS011;64049;46.290;44.240;2022-11-20T03:35:12;43.33;;;13.82;;
75465;SDS011;64049;46.290;44.240;2022-11-20T03:37:38;63.53;;;18.08;;
75465;SDS011;64049;46.290;44.240;2022-11-20T03:40:04;47.13;;;15.57;;
75465;SDS011;64049;46.290;44.240;2022-11-20T03:42:30;46.03;;;14.85;;
75465;SDS011;64049;46.290;44.240;2022-11-20T03:45:15;57.00;;;16.85;;
75465;SDS011;64049;46.290;44.240;2022-11-20T03:47:42;31.65;;;10.50;;
75465;SDS011;64049;46.290;44.240;2022-11-20T03:50:10;47.42;;;14.18;;
75465;SDS011;64049;46.290;44.240;2022-11-20T03:52:40;67.82;;;17.40;;
75465;SDS011;64049;46.290;44.240;2022-11-20T03:55:06;60.78;;;18.90;;
75465;SDS011;64049;46.290;44.240;2022-11-20T03:57:33;21.83;;;9.48;;
75465;SDS011;64049;46.290;44.240;2022-11-20T03:59:59;37.25;;;15.13;;
75465;SDS011;64049;46.290;44.240;2022-11-20T04:02:25;29.92;;;12.30;;
75465;SDS011;64049;46.290;44.240;2022-11-20T04:04:50;24.40;;;10.50;;
75465;SDS011;64049;46.290;44.240;2022-11-20T04:07:16;37.53;;;14.20;;
75465;SDS011;64049;46.290;44.240;2022-11-20T04:09:42;43.40;;;15.73;;
75465;SDS011;64049;46.290;44.240;2022-11-20T04:12:08;24.75;;;11.05;;
75465;SDS011;64049;46.290;44.240;2022-11-20T04:14:34;21.98;;;8.65;;
75465;SDS011;64049;46.290;44.240;2022-11-20T04:17:01;41.63;;;14.45;;
75465;SDS011;64049;46.290;44.240;2022-11-20T04:19:26;36.60;;;13.77;;
75465;SDS011;64049;46.290;44.240;2022-11-20T04:21:52;50.42;;;18.65;;
75465;SDS011;64049;46.290;44.240;2022-11-20T04:24:18;56.08;;;18.67;;
75465;SDS011;64049;46.290;44.240;2022-11-20T04:26:44;40.53;;;14.85;;
75465;SDS011;64049;46.290;44.240;2022-11-20T04:29:10;33.45;;;13.32;;
75465;SDS011;64049;46.290;44.240;2022-11-20T04:31:37;46.38;;;16.02;;
75465;SDS011;64049;46.290;44.240;2022-11-20T04:34:04;35.28;;;16.42;;
75465;SDS011;64049;46.290;44.240;2022-11-20T04:36:31;28.95;;;12.38;;
75465;SDS011;64049;46.290;44.240;2022-11-20T04:38:58;25.50;;;12.25;;
75465;SDS011;64049;46.290;44.240;2022-11-20T04:41:27;20.52;;;11.63;;
75465;SDS011;64049;46.290;44.240;2022-11-20T04:43:56;22.73;;;11.43;;
75465;SDS011;64049;46.290;44.240;2022-11-20T04:46:29;21.83;;;13.02;;
75465;SDS011;64049;46.290;44.240;2022-11-20T04:48:59;25.65;;;12.30;;
75465;SDS011;64049;46.290;44.240;2022-11-20T04:51:26;26.42;;;11.48;;
75465;SDS011;64049;46.290;44.240;2022-11-20T04:53:53;17.48;;;9.82;;
75465;SDS011;64049;46.290;44.240;2022-11-20T04:56:19;26.20;;;9.88;;
75465;SDS011;64049;46.290;44.240;2022-11-20T04:58:45;22.25;;;11.13;;
75465;SDS011;64049;46.290;44.240;2022-11-20T05:01:12;12.75;;;7.75;;
75465;SDS011;64049;46.290;44.240;2022-11-20T05:03:40;16.77;;;8.63;;
75465;SDS011;64049;46.290;44.240;2022-11-20T05:06:07;20.58;;;9.77;;
75465;SDS011;64049;46.290;44.240;2022-11-20T05:08:34;21.00;;;10.75;;
75465;SDS011;64049;46.290;44.240;2022-11-20T05:11:04;17.10;;;8.95;;
75465;SDS011;64049;46.290;44.240;2022-11-20T05:13:41;24.05;;;12.40;;
75465;SDS011;64049;46.290;44.240;2022-11-20T05:16:17;18.90;;;8.57;;
75465;SDS011;64049;46.290;44.240;2022-11-20T05:18:44;30.30;;;12.50;;
75465;SDS011;64049;46.290;44.240;2022-11-20T05:21:10;22.67;;;11.27;;
75465;SDS011;64049;46.290;44.240;2022-11-20T05:23:37;27.67;;;11.82;;
75465;SDS011;64049;46.290;44.240;2022-11-20T05:26:04;23.92;;;10.50;;
75465;SDS011;64049;46.290;44.240;2022-11-20T05:28:32;15.77;;;8.85;;
75465;SDS011;64049;46.290;44.240;2022-11-20T05:31:18;17.90;;;9.60;;
75465;SDS011;64049;46.290;44.240;2022-11-20T05:33:45;24.50;;;12.55;;
75465;SDS011;64049;46.290;44.240;2022-11-20T05:36:12;24.55;;;11.15;;
75465;SDS011;64049;46.290;44.240;2022-11-20T05:38:39;24.20;;;11.02;;
75465;SDS011;64049;46.290;44.240;2022-11-20T05:41:13;21.20;;;10.45;;
75465;SDS011;64049;46.290;44.240;2022-11-20T05:43:41;24.55;;;11.18;;
75465;SDS011;64049;46.290;44.240;2022-11-20T05:46:09;27.88;;;12.55;;
75465;SDS011;64049;46.290;44.240;2022-11-20T05:48:36;23.80;;;9.80;;
75465;SDS011;64049;46.290;44.240;2022-11-20T05:51:04;24.60;;;11.65;;
75465;SDS011;64049;46.290;44.240;2022-11-20T05:53:32;28.23;;;13.55;;
75465;SDS011;64049;46.290;44.240;2022-11-20T05:55:59;29.90;;;13.57;;
75465;SDS011;64049;46.290;44.240;2022-11-20T05:58:30;24.88;;;12.63;;
75465;SDS011;64049;46.290;44.240;2022-11-20T06:01:07;29.98;;;14.27;;
75465;SDS011;64049;46.290;44.240;2022-11-20T06:03:43;21.88;;;11.63;;
75465;SDS011;64049;46.290;44.240;2022-11-20T06:06:13;24.55;;;11.10;;
75465;SDS011;64049;46.290;44.240;2022-11-20T06:08:40;27.83;;;13.75;;
75465;SDS011;64049;46.290;44.240;2022-11-20T06:11:07;14.23;;;8.35;;
75465;SDS011;64049;46.290;44.240;2022-11-20T06:13:35;20.02;;;10.25;;
75465;SDS011;64049;46.290;44.240;2022-11-20T06:16:02;28.38;;;11.77;;
75465;SDS011;64049;46.290;44.240;2022-11-20T06:18:30;26.15;;;11.73;;
75465;SDS011;64049;46.290;44.240;2022-11-20T06:21:00;29.33;;;12.00;;
75465;SDS011;64049;46.290;44.240;2022-11-20T06:23:29;23.27;;;11.10;;
75465;SDS011;64049;46.290;44.240;2022-11-20T06:25:55;14.27;;;7.63;;
75465;SDS011;64049;46.290;44.240;2022-11-20T06:28:21;14.75;;;7.30;;
75465;SDS011;64049;46.290;44.240;2022-11-20T06:30:49;16.67;;;8.90;;
75465;SDS011;64049;46.290;44.240;2022-11-20T06:33:25;9.55;;;6.07;;
75465;SDS011;64049;46.290;44.240;2022-11-20T06:35:51;15.55;;;7.07;;
75465;SDS011;64049;46.290;44.240;2022-11-20T06:38:17;18.20;;;9.85;;
75465;SDS011;64049;46.290;44.240;2022-11-20T06:40:43;14.02;;;7.45;;
75465;SDS011;64049;46.290;44.240;2022-11-20T06:43:09;13.00;;;6.78;;
75465;SDS011;64049;46.290;44.240;2022-11-20T06:45:38;14.35;;;6.13;;
75465;SDS011;64049;46.290;44.240;2022-11-20T06:48:04;14.48;;;7.03;;
75465;SDS011;64049;46.290;44.240;2022-11-20T06:50:33;12.60;;;5.85;;
75465;SDS011;64049;46.290;44.240;2022-11-20T06:53:02;15.23;;;6.72;;
75465;SDS011;64049;46.290;44.240;2022-11-20T06:55:32;12.52;;;7.00;;
75465;SDS011;64049;46.290;44.240;2022-11-20T06:57:58;11.00;;;5.18;;
75465;SDS011;64049;46.290;44.240;2022-11-20T07:00:27;12.65;;;6.97;;
75465;SDS011;64049;46.290;44.240;2022-11-20T07:02:53;13.10;;;7.78;;
75465;SDS011;64049;46.290;44.240;2022-11-20T07:05:20;11.23;;;5.93;;
75465;SDS011;64049;46.290;44.240;2022-11-20T07:07:46;12.57;;;5.43;;
75465;SDS011;64049;46.290;44.240;2022-11-20T07:10:15;11.18;;;5.60;;
75465;SDS011;64049;46.290;44.240;2022-11-20T07:12:41;11.88;;;5.35;;
75465;SDS011;64049;46.290;44.240;2022-11-20T07:15:10;14.57;;;8.00;;
75465;SDS011;64049;46.290;44.240;2022-11-20T07:17:39;10.20;;;4.93;;
75465;SDS011;64049;46.290;44.240;2022-11-20T07:20:05;15.65;;;7.70;;
75465;SDS011;64049;46.290;44.240;2022-11-20T07:22:31;9.43;;;4.35;;
75465;SDS011;64049;46.290;44.240;2022-11-20T07:24:57;8.18;;;4.75;;
75465;SDS011;64049;46.290;44.240;2022-11-20T07:27:23;9.55;;;5.47;;
75465;SDS011;64049;46.290;44.240;2022-11-20T07:29:53;8.65;;;4.65;;
75465;SDS011;64049;46.290;44.240;2022-11-20T07:32:22;6.90;;;3.90;;
75465;SDS011;64049;46.290;44.240;2022-11-20T07:34:48;9.35;;;4.07;;
75465;SDS011;64049;46.290;44.240;2022-11-20T07:37:17;9.82;;;5.68;;
75465;SDS011;64049;46.290;44.240;2022-11-20T07:39:45;13.85;;;6.03;;
75465;SDS011;64049;46.290;44.240;2022-11-20T07:42:11;13.73;;;6.90;;
75465;SDS011;64049;46.290;44.240;2022-11-20T07:44:41;17.83;;;8.93;;
75465;SDS011;64049;46.290;44.240;2022-11-20T07:47:06;10.07;;;6.25;;
75465;SDS011;64049;46.290;44.240;2022-11-20T07:49:35;9.68;;;5.88;;
75465;SDS011;64049;46.290;44.240;2022-11-20T07:52:01;6.68;;;4.20;;
75465;SDS011;64049;46.290;44.240;2022-11-20T07:54:27;8.13;;;4.88;;
75465;SDS011;64049;46.290;44.240;2022-11-20T07:56:53;10.38;;;4.65;;
75465;SDS011;64049;46.290;44.240;2022-11-20T07:59:22;9.10;;;5.22;;
75465;SDS011;64049;46.290;44.240;2022-11-20T08:01:48;11.68;;;5.90;;
75465;SDS011;64049;46.290;44.240;2022-11-20T08:04:17;9.48;;;5.57;;
75465;SDS011;64049;46.290;44.240;2022-11-20T08:06:45;9.05;;;4.45;;
75465;SDS011;64049;46.290;44.240;2022-11-20T08:09:11;11.80;;;5.32;;
75465;SDS011;64049;46.290;44.240;2022-11-20T08:11:37;9.13;;;6.05;;
75465;SDS011;64049;46.290;44.240;2022-11-20T08:14:22;11.88;;;4.85;;
75465;SDS011;64049;46.290;44.240;2022-11-20T08:16:48;7.80;;;4.88;;
75465;SDS011;64049;46.290;44.240;2022-11-20T08:19:18;8.50;;;5.75;;
75465;SDS011;64049;46.290;44.240;2022-11-20T08:21:46;12.10;;;7.45;;
75465;SDS011;64049;46.290;44.240;2022-11-20T08:24:12;8.23;;;3.88;;
75465;SDS011;64049;46.290;44.240;2022-11-20T08:26:41;5.97;;;3.40;;
75465;SDS011;64049;46.290;44.240;2022-11-20T08:29:07;8.48;;;4.00;;
75465;SDS011;64049;46.290;44.240;2022-11-20T08:31:33;8.57;;;2.95;;
75465;SDS011;64049;46.290;44.240;2022-11-20T08:33:59;7.00;;;3.60;;
75465;SDS011;64049;46.290;44.240;2022-11-20T08:36:28;8.27;;;4.55;;
75465;SDS011;64049;46.290;44.240;2022-11-20T08:38:57;10.32;;;4.85;;
75465;SDS011;64049;46.290;44.240;2022-11-20T08:41:23;8.18;;;3.58;;
75465;SDS011;64049;46.290;44.240;2022-11-20T08:43:51;8.32;;;4.28;;
75465;SDS011;64049;46.290;44.240;2022-11-20T08:46:23;9.93;;;5.55;;
75465;SDS011;64049;46.290;44.240;2022-11-20T08:48:50;8.80;;;4.82;;
75465;SDS011;64049;46.290;44.240;2022-11-20T08:51:17;10.25;;;4.07;;
75465;SDS011;64049;46.290;44.240;2022-11-20T08:53:44;8.77;;;4.50;;
75465;SDS011;64049;46.290;44.240;2022-11-20T08:56:10;7.55;;;2.97;;
75465;SDS011;64049;46.290;44.240;2022-11-20T08:58:37;9.18;;;3.97;;
75465;SDS011;64049;46.290;44.240;2022-11-20T09:01:04;7.28;;;3.45;;
75465;SDS011;64049;46.290;44.240;2022-11-20T09:03:30;7.05;;;3.75;;
75465;SDS011;64049;46.290;44.240;2022-11-20T09:05:57;8.40;;;4.13;;
75465;SDS011;64049;46.290;44.240;2022-11-20T09:08:27;5.13;;;2.30;;
75465;SDS011;64049;46.290;44.240;2022-11-20T09:10:54;9.23;;;4.05;;
75465;SDS011;64049;46.290;44.240;2022-11-20T09:13:22;7.50;;;3.72;;
75465;SDS011;64049;46.290;44.240;2022-11-20T09:15:53;7.57;;;3.47;;
75465;SDS011;64049;46.290;44.240;2022-11-20T09:18:20;6.95;;;3.40;;
75465;SDS011;64049;46.290;44.240;2022-11-20T09:20:47;5.47;;;2.63;;
75465;SDS011;64049;46.290;44.240;2022-11-20T09:23:16;6.97;;;2.63;;
75465;SDS011;64049;46.290;44.240;2022-11-20T09:25:43;6.40;;;2.67;;
75465;SDS011;64049;46.290;44.240;2022-11-20T09:28:09;6.38;;;3.03;;
75465;SDS011;64049;46.290;44.240;2022-11-20T09:30:35;6.10;;;3.25;;
75465;SDS011;64049;46.290;44.240;2022-11-20T09:33:04;7.53;;;3.53;;
75465;SDS011;64049;46.290;44.240;2022-11-20T09:35:32;7.75;;;3.33;;
75465;SDS011;64049;46.290;44.240;2022-11-20T09:38:03;8.18;;;3.08;;
75465;SDS011;64049;46.290;44.240;2022-11-20T09:40:30;5.45;;;2.88;;
75465;SDS011;64049;46.290;44.240;2022-11-20T09:53:57;5.60;;;3.45;;
75465;SDS011;64049;46.290;44.240;2022-11-20T09:56:33;7.75;;;4.05;;
75465;SDS011;64049;46.290;44.240;2022-11-20T09:59:06;8.48;;;4.13;;
75465;SDS011;64049;46.290;44.240;2022-11-20T10:01:38;5.75;;;3.15;;
75465;SDS011;64049;46.290;44.240;2022-11-20T10:13:17;8.27;;;3.58;;
75465;SDS011;64049;46.290;44.240;2022-11-20T10:19:01;9.48;;;5.38;;
75465;SDS011;64049;46.290;44.240;2022-11-20T10:24:30;8.25;;;5.07;;
75465;SDS011;64049;46.290;44.240;2022-11-20T10:30:00;6.97;;;4.00;;
75465;SDS011;64049;46.290;44.240;2022-11-20T10:32:32;11.60;;;5.43;;
75465;SDS011;64049;46.290;44.240;2022-11-20T10:38:12;11.73;;;6.10;;
75465;SDS011;64049;46.290;44.240;2022-11-20T10:41:29;11.73;;;6.05;;
75465;SDS011;64049;46.290;44.240;2022-11-20T10:44:09;9.25;;;4.90;;
75465;SDS011;64049;46.290;44.240;2022-11-20T10:47:01;12.27;;;7.57;;
75465;SDS011;64049;46.290;44.240;2022-11-20T10:49:33;11.07;;;6.53;;
75465;SDS011;64049;46.290;44.240;2022-11-20T10:52:15;13.63;;;7.60;;
75465;SDS011;64049;46.290;44.240;2022-11-20T11:00:42;7.97;;;4.45;;
75465;SDS011;64049;46.290;44.240;2022-11-20T11:03:22;15.05;;;8.90;;
75465;SDS011;64049;46.290;44.240;2022-11-20T11:09:09;8.68;;;4.70;;
75465;SDS011;64049;46.290;44.240;2022-11-20T11:11:38;16.00;;;7.88;;
75465;SDS011;64049;46.290;44.240;2022-11-20T11:14:15;14.50;;;8.20;;
75465;SDS011;64049;46.290;44.240;2022-11-20T11:16:54;11.32;;;5.57;;
75465;SDS011;64049;46.290;44.240;2022-11-20T11:19:22;14.48;;;7.95;;
75465;SDS011;64049;46.290;44.240;2022-11-20T11:21:53;15.30;;;8.63;;
75465;SDS011;64049;46.290;44.240;2022-11-20T11:24:28;16.45;;;9.40;;
75465;SDS011;64049;46.290;44.240;2022-11-20T11:26:58;15.32;;;6.68;;
75465;SDS011;64049;46.290;44.240;2022-11-20T11:29:32;12.38;;;6.10;;
75465;SDS011;64049;46.290;44.240;2022-11-20T11:32:12;9.43;;;5.45;;
75465;SDS011;64049;46.290;44.240;2022-11-20T11:35:04;12.73;;;7.38;;
75465;SDS011;64049;46.290;44.240;2022-11-20T11:37:35;16.83;;;7.85;;
75465;SDS011;64049;46.290;44.240;2022-11-20T11:40:03;14.82;;;7.82;;
75465;SDS011;64049;46.290;44.240;2022-11-20T11:42:33;11.98;;;7.47;;
75465;SDS011;64049;46.290;44.240;2022-11-20T11:44:59;12.80;;;6.88;;
75465;SDS011;64049;46.290;44.240;2022-11-20T12:00:51;12.60;;;7.13;;
75465;SDS011;64049;46.290;44.240;2022-11-20T12:03:40;15.07;;;6.45;;
75465;SDS011;64049;46.290;44.240;2022-11-20T12:06:17;10.18;;;5.93;;
75465;SDS011;64049;46.290;44.240;2022-11-20T12:08:48;10.98;;;6.63;;
75465;SDS011;64049;46.290;44.240;2022-11-20T12:16:41;11.48;;;5.38;;
75465;SDS011;64049;46.290;44.240;2022-11-20T12:19:11;12.52;;;7.13;;
75465;SDS011;64049;46.290;44.240;2022-11-20T12:40:25;11.38;;;7.30;;
75465;SDS011;64049;46.290;44.240;2022-11-20T12:57:24;17.08;;;8.68;;
75465;SDS011;64049;46.290;44.240;2022-11-20T13:00:21;12.40;;;7.45;;
75465;SDS011;64049;46.290;44.240;2022-11-20T13:07:47;19.40;;;8.68;;
75465;SDS011;64049;46.290;44.240;2022-11-20T13:10:31;16.20;;;8.65;;
75465;SDS011;64049;46.290;44.240;2022-11-20T13:15:51;19.02;;;8.27;;
75465;SDS011;64049;46.290;44.240;2022-11-20T13:18:24;17.33;;;8.57;;
75465;SDS011;64049;46.290;44.240;2022-11-20T13:20:50;15.32;;;8.45;;
75465;SDS011;64049;46.290;44.240;2022-11-20T13:23:26;22.10;;;9.15;;
75465;SDS011;64049;46.290;44.240;2022-11-20T13:26:06;20.67;;;9.10;;
75465;SDS011;64049;46.290;44.240;2022-11-20T13:28:45;24.50;;;8.77;;
75465;SDS011;64049;46.290;44.240;2022-11-20T13:34:22;18.90;;;8.75;;
75465;SDS011;64049;46.290;44.240;2022-11-20T13:36:54;20.42;;;9.23;;
75465;SDS011;64049;46.290;44.240;2022-11-20T13:39:26;22.20;;;9.52;;
75465;SDS011;64049;46.290;44.240;2022-11-20T13:41:57;24.17;;;11.15;;
75465;SDS011;64049;46.290;44.240;2022-11-20T13:44:27;22.55;;;11.43;;
75465;SDS011;64049;46.290;44.240;2022-11-20T13:47:17;26.92;;;15.23;;
75465;SDS011;64049;46.290;44.240;2022-11-20T13:49:51;24.55;;;13.73;;
75465;SDS011;64049;46.290;44.240;2022-11-20T13:52:39;21.80;;;11.98;;
75465;SDS011;64049;46.290;44.240;2022-11-20T13:55:38;24.33;;;11.95;;
75465;SDS011;64049;46.290;44.240;2022-11-20T14:01:16;19.48;;;12.52;;
75465;SDS011;64049;46.290;44.240;2022-11-20T14:03:45;19.90;;;9.63;;
75465;SDS011;64049;46.290;44.240;2022-11-20T14:06:29;23.88;;;12.25;;
75465;SDS011;64049;46.290;44.240;2022-11-20T14:08:58;18.17;;;10.90;;
75465;SDS011;64049;46.290;44.240;2022-11-20T14:11:28;18.23;;;9.85;;
75465;SDS011;64049;46.290;44.240;2022-11-20T14:14:03;16.75;;;8.45;;
75465;SDS011;64049;46.290;44.240;2022-11-20T14:16:40;17.05;;;10.15;;
75465;SDS011;64049;46.290;44.240;2022-11-20T14:21:54;18.83;;;10.07;;
75465;SDS011;64049;46.290;44.240;2022-11-20T14:24:33;20.60;;;10.20;;
75465;SDS011;64049;46.290;44.240;2022-11-20T14:26:59;19.48;;;10.13;;
75465;SDS011;64049;46.290;44.240;2022-11-20T14:29:36;18.13;;;10.23;;
75465;SDS011;64049;46.290;44.240;2022-11-20T14:32:04;16.48;;;9.02;;
75465;SDS011;64049;46.290;44.240;2022-11-20T14:34:32;14.73;;;8.27;;
75465;SDS011;64049;46.290;44.240;2022-11-20T14:37:06;20.27;;;9.50;;
75465;SDS011;64049;46.290;44.240;2022-11-20T14:39:40;16.10;;;8.50;;
75465;SDS011;64049;46.290;44.240;2022-11-20T14:42:16;15.82;;;7.93;;
75465;SDS011;64049;46.290;44.240;2022-11-20T14:44:44;11.45;;;6.25;;
75465;SDS011;64049;46.290;44.240;2022-11-20T14:47:12;13.45;;;8.20;;
75465;SDS011;64049;46.290;44.240;2022-11-20T14:49:40;14.13;;;8.30;;
75465;SDS011;64049;46.290;44.240;2022-11-20T14:52:14;18.52;;;8.88;;
75465;SDS011;64049;46.290;44.240;2022-11-20T14:54:49;17.58;;;10.02;;
75465;SDS011;64049;46.290;44.240;2022-11-20T15:02:39;16.27;;;7.07;;
75465;SDS011;64049;46.290;44.240;2022-11-20T15:05:07;13.65;;;7.60;;
75465;SDS011;64049;46.290;44.240;2022-11-20T15:07:38;13.15;;;6.97;;
75465;SDS011;64049;46.290;44.240;2022-11-20T15:12:53;15.95;;;7.35;;
75465;SDS011;64049;46.290;44.240;2022-11-20T15:15:31;13.85;;;7.93;;
75465;SDS011;64049;46.290;44.240;2022-11-20T15:18:00;11.95;;;6.70;;
75465;SDS011;64049;46.290;44.240;2022-11-20T15:20:29;15.70;;;7.60;;
75465;SDS011;64049;46.290;44.240;2022-11-20T15:22:57;18.48;;;8.52;;
75465;SDS011;64049;46.290;44.240;2022-11-20T15:25:24;13.48;;;7.65;;
75465;SDS011;64049;46.290;44.240;2022-11-20T15:27:52;16.70;;;9.05;;
75465;SDS011;64049;46.290;44.240;2022-11-20T15:30:21;16.02;;;9.15;;
75465;SDS011;64049;46.290;44.240;2022-11-20T15:32:47;17.48;;;8.70;;
75465;SDS011;64049;46.290;44.240;2022-11-20T15:35:14;17.92;;;10.25;;
75465;SDS011;64049;46.290;44.240;2022-11-20T15:37:41;19.85;;;11.57;;
75465;SDS011;64049;46.290;44.240;2022-11-20T15:40:08;20.02;;;11.25;;
75465;SDS011;64049;46.290;44.240;2022-11-20T15:42:34;14.20;;;8.25;;
75465;SDS011;64049;46.290;44.240;2022-11-20T15:45:01;16.92;;;8.18;;
75465;SDS011;64049;46.290;44.240;2022-11-20T15:47:31;15.32;;;8.40;;
75465;SDS011;64049;46.290;44.240;2022-11-20T15:50:00;15.07;;;9.30;;
75465;SDS011;64049;46.290;44.240;2022-11-20T15:52:26;14.82;;;8.90;;
75465;SDS011;64049;46.290;44.240;2022-11-20T15:54:52;14.10;;;8.30;;
75465;SDS011;64049;46.290;44.240;2022-11-20T15:57:18;16.77;;;9.63;;
75465;SDS011;64049;46.290;44.240;2022-11-20T15:59:44;15.90;;;9.20;;
75465;SDS011;64049;46.290;44.240;2022-11-20T16:02:11;17.65;;;8.82;;
75465;SDS011;64049;46.290;44.240;2022-11-20T16:07:09;16.95;;;9.13;;
75465;SDS011;64049;46.290;44.240;2022-11-20T16:09:35;17.77;;;9.05;;
75465;SDS011;64049;46.290;44.240;2022-11-20T16:12:13;18.33;;;9.48;;
75465;SDS011;64049;46.290;44.240;2022-11-20T16:14:59;19.48;;;9.38;;
75465;SDS011;64049;46.290;44.240;2022-11-20T16:17:43;17.38;;;9.43;;
75465;SDS011;64049;46.290;44.240;2022-11-20T16:20:10;18.40;;;9.57;;
75465;SDS011;64049;46.290;44.240;2022-11-20T16:22:36;20.17;;;8.98;;
75465;SDS011;64049;46.290;44.240;2022-11-20T16:25:02;18.55;;;9.32;;
75465;SDS011;64049;46.290;44.240;2022-11-20T16:27:29;20.35;;;9.45;;
75465;SDS011;64049;46.290;44.240;2022-11-20T16:29:58;16.08;;;8.57;;
75465;SDS011;64049;46.290;44.240;2022-11-20T16:32:24;18.35;;;9.75;;
75465;SDS011;64049;46.290;44.240;2022-11-20T16:34:51;20.20;;;9.18;;
75465;SDS011;64049;46.290;44.240;2022-11-20T16:37:23;18.50;;;8.98;;
75465;SDS011;64049;46.290;44.240;2022-11-20T16:39:49;17.85;;;9.85;;
75465;SDS011;64049;46.290;44.240;2022-11-20T16:42:15;20.38;;;10.32;;